createdAt,value
2022-08-28T00:00:53.809Z,18.09
2022-08-28T00:03:22.450Z,18.08
2022-08-28T00:05:51.312Z,18.06
2022-08-28T00:08:21.318Z,18.04
2022-08-28T00:10:50.018Z,18.02
2022-08-28T00:13:21.802Z,18.00
2022-08-28T00:15:53.567Z,17.98
2022-08-28T00:18:22.537Z,17.95
2022-08-28T00:20:51.936Z,17.93
2022-08-28T00:23:20.537Z,17.91
2022-08-28T00:25:49.059Z,17.88
2022-08-28T00:28:23.842Z,17.85
2022-08-28T00:30:58.690Z,17.83
2022-08-28T00:33:44.220Z,17.79
2022-08-28T00:36:12.513Z,17.72
2022-08-28T00:38:40.432Z,17.67
2022-08-28T00:41:11.253Z,17.63
2022-08-28T00:43:46.551Z,17.60
2022-08-28T00:46:21.716Z,17.60
2022-08-28T00:48:50.849Z,17.62
2022-08-28T00:51:40.642Z,17.64
2022-08-28T00:54:09.473Z,17.66
2022-08-28T00:56:40.640Z,17.67
2022-08-28T00:59:15.596Z,17.66
2022-08-28T01:01:45.526Z,17.65
2022-08-28T01:04:17.686Z,17.63
2022-08-28T01:06:48.577Z,17.61
2022-08-28T01:09:18.860Z,17.58
2022-08-28T01:11:51.395Z,17.55
2022-08-28T01:14:23.231Z,17.52
2022-08-28T01:16:56.230Z,17.48
2022-08-28T01:19:31.908Z,17.45
2022-08-28T01:22:24.654Z,17.42
2022-08-28T01:24:56.149Z,17.37
2022-08-28T01:27:24.399Z,17.35
2022-08-28T01:29:53.057Z,17.33
2022-08-28T01:32:29.617Z,17.30
2022-08-28T01:34:58.061Z,17.27
2022-08-28T01:37:26.392Z,17.25
2022-08-28T01:39:54.598Z,17.23
2022-08-28T01:42:22.775Z,17.21
2022-08-28T01:44:52.730Z,17.21
2022-08-28T01:47:22.310Z,17.21
2022-08-28T01:49:50.209Z,17.23
2022-08-28T01:52:18.111Z,17.26
2022-08-28T01:54:53.448Z,17.29
2022-08-28T01:57:21.328Z,17.35
2022-08-28T01:59:52.339Z,17.39
2022-08-28T02:02:20.995Z,17.42
2022-08-28T02:04:49.134Z,17.45
2022-08-28T02:07:17.093Z,17.46
2022-08-28T02:09:45.051Z,17.47
2022-08-28T02:12:12.970Z,17.46
2022-08-28T02:14:41.278Z,17.44
2022-08-28T02:17:09.120Z,17.41
2022-08-28T02:19:37.042Z,17.38
2022-08-28T02:22:08.222Z,17.35
2022-08-28T02:24:36.192Z,17.32
2022-08-28T02:27:05.992Z,17.28
2022-08-28T02:29:34.032Z,17.22
2022-08-28T02:32:01.992Z,17.18
2022-08-28T02:34:29.833Z,17.14
2022-08-28T02:36:57.772Z,17.09
2022-08-28T02:39:25.639Z,17.04
2022-08-28T02:41:53.613Z,17.00
2022-08-28T02:44:21.548Z,16.94
2022-08-28T02:46:49.598Z,16.90
2022-08-28T02:49:17.506Z,16.84
2022-08-28T02:51:45.478Z,16.81
2022-08-28T02:54:13.307Z,16.79
2022-08-28T02:56:42.789Z,16.77
2022-08-28T02:59:10.950Z,16.76
2022-08-28T03:01:39.208Z,16.77
2022-08-28T03:04:07.173Z,16.81
2022-08-28T03:06:35.142Z,16.85
2022-08-28T03:09:03.121Z,16.86
2022-08-28T03:11:31.467Z,16.86
2022-08-28T03:14:01.527Z,16.85
2022-08-28T03:16:30.451Z,16.83
2022-08-28T03:18:58.485Z,16.79
2022-08-28T03:21:27.180Z,16.78
2022-08-28T03:23:55.015Z,16.75
2022-08-28T03:27:05.670Z,16.72
2022-08-28T03:30:43.159Z,16.68
2022-08-28T03:38:47.841Z,16.56
2022-08-28T03:41:34.482Z,16.54
2022-08-28T03:44:35.130Z,16.52
2022-08-28T03:47:33.068Z,16.52
2022-08-28T03:54:24.067Z,16.59
2022-08-28T03:57:44.122Z,16.65
2022-08-28T04:00:57.124Z,16.70
2022-08-28T04:03:48.086Z,16.74
2022-08-28T04:07:00.095Z,16.75
2022-08-28T04:10:00.341Z,16.76
2022-08-28T04:12:59.095Z,16.75
2022-08-28T04:16:39.865Z,16.72
2022-08-28T04:19:55.141Z,16.70
2022-08-28T04:23:03.144Z,16.69
2022-08-28T04:39:14.136Z,16.68
2022-08-28T04:41:59.105Z,16.72
2022-08-28T04:48:33.388Z,16.80
2022-08-28T04:51:48.076Z,16.86
2022-08-28T04:55:03.121Z,16.93
2022-08-28T04:58:43.896Z,17.00
2022-08-28T05:02:03.219Z,17.07
2022-08-28T05:05:36.110Z,17.14
2022-08-28T05:12:18.456Z,17.31
2022-08-28T05:15:38.123Z,17.38
2022-08-28T05:21:54.194Z,17.51
2022-08-28T05:35:12.887Z,17.94
2022-08-28T05:38:29.153Z,18.08
2022-08-28T06:01:49.593Z,18.95
2022-08-28T06:08:58.717Z,19.11
2022-08-28T06:16:05.345Z,19.25
2022-08-28T06:19:08.127Z,19.33
2022-08-28T06:46:09.314Z,20.06
2022-08-28T06:49:25.076Z,20.28
2022-08-28T06:52:23.126Z,20.41
2022-08-28T06:59:05.909Z,20.66
2022-08-28T07:02:20.395Z,20.80
2022-08-28T07:05:42.073Z,20.90
2022-08-28T07:11:54.404Z,21.19
2022-08-28T07:14:22.266Z,21.30
2022-08-28T07:16:50.462Z,21.40
2022-08-28T07:19:20.307Z,21.52
2022-08-28T07:21:48.963Z,21.65
2022-08-28T07:24:17.852Z,21.78
2022-08-28T07:26:47.809Z,21.87
2022-08-28T07:29:18.199Z,21.95
2022-08-28T07:31:49.618Z,22.08
2022-08-28T07:34:21.352Z,22.21
2022-08-28T07:36:53.181Z,22.34
2022-08-28T07:39:21.343Z,22.46
2022-08-28T07:41:50.306Z,22.60
2022-08-28T07:44:35.761Z,22.72
2022-08-28T07:47:06.780Z,22.85
2022-08-28T07:49:38.791Z,23.00
2022-08-28T07:52:08.858Z,23.14
2022-08-28T07:54:40.445Z,23.28
2022-08-28T07:57:10.274Z,23.40
2022-08-28T07:59:38.724Z,23.53
2022-08-28T08:02:07.422Z,23.64
2022-08-28T08:04:37.095Z,23.75
2022-08-28T08:07:06.108Z,23.90
2022-08-28T08:09:43.506Z,24.00
2022-08-28T08:12:13.939Z,24.08
2022-08-28T08:14:44.575Z,24.21
2022-08-28T08:17:14.009Z,24.33
2022-08-28T08:19:44.101Z,24.44
2022-08-28T08:22:12.546Z,24.54
2022-08-28T08:24:41.241Z,24.64
2022-08-28T08:27:11.757Z,24.77
2022-08-28T08:29:41.608Z,24.89
2022-08-28T08:32:11.613Z,24.93
2022-08-28T08:34:46.548Z,25.03
2022-08-28T08:37:17.273Z,25.15
2022-08-28T08:39:45.863Z,25.20
2022-08-28T08:42:27.507Z,25.18
2022-08-28T08:44:58.404Z,25.15
2022-08-28T08:47:40.806Z,25.24
2022-08-28T08:50:18.700Z,25.50
2022-08-28T08:53:24.037Z,25.70
2022-08-28T08:55:54.156Z,25.93
2022-08-28T08:58:38.624Z,26.14
2022-08-28T09:01:22.157Z,26.37
2022-08-28T09:04:00.521Z,26.58
2022-08-28T09:06:40.638Z,26.64
2022-08-28T09:09:18.761Z,26.82
2022-08-28T09:11:57.206Z,27.05
2022-08-28T09:14:46.209Z,27.27
2022-08-28T09:17:20.661Z,27.36
2022-08-28T09:19:49.533Z,27.51
2022-08-28T09:22:18.569Z,27.68
2022-08-28T09:24:46.509Z,27.80
2022-08-28T09:27:29.304Z,27.87
2022-08-28T09:30:07.962Z,27.91
2022-08-28T09:32:41.482Z,28.03
2022-08-28T09:35:28.077Z,28.03
2022-08-28T09:37:56.696Z,28.07
2022-08-28T09:40:47.224Z,28.19
2022-08-28T09:43:28.176Z,28.44
2022-08-28T09:46:04.535Z,28.69
2022-08-28T09:48:36.496Z,28.86
2022-08-28T09:51:09.098Z,29.06
2022-08-28T09:53:54.581Z,29.20
2022-08-28T09:56:42.655Z,29.36
2022-08-28T09:59:14.362Z,29.51
2022-08-28T10:02:11.336Z,29.70
2022-08-28T10:05:00.648Z,29.78
2022-08-28T10:07:50.476Z,29.91
2022-08-28T10:10:38.671Z,30.17
2022-08-28T10:13:20.483Z,30.35
2022-08-28T10:16:19.075Z,30.57
2022-08-28T10:19:02.219Z,30.78
2022-08-28T10:21:43.359Z,30.91
2022-08-28T10:24:38.382Z,31.01
2022-08-28T10:27:25.551Z,31.13
2022-08-28T10:30:13.636Z,31.17
2022-08-28T10:33:10.711Z,31.30
2022-08-28T10:35:53.291Z,31.33
2022-08-28T10:38:43.328Z,31.37
2022-08-28T10:41:20.856Z,31.53
2022-08-28T10:43:52.174Z,31.78
2022-08-28T10:46:32.841Z,32.05
2022-08-28T10:49:09.873Z,32.39
2022-08-28T10:51:49.604Z,32.62
2022-08-28T10:54:45.796Z,32.88
2022-08-28T10:57:39.503Z,33.15
2022-08-28T11:00:12.705Z,33.35
2022-08-28T11:02:44.966Z,33.59
2022-08-28T11:05:13.811Z,33.89
2022-08-28T11:07:49.699Z,34.20
2022-08-28T11:10:23.842Z,34.58
2022-08-28T11:13:12.465Z,34.90
2022-08-28T11:15:51.572Z,35.19
2022-08-28T11:18:38.901Z,35.48
2022-08-28T11:21:20.101Z,35.62
2022-08-28T11:24:15.592Z,35.79
2022-08-28T11:26:56.770Z,35.73
2022-08-28T11:30:03.593Z,35.75
2022-08-28T11:32:55.835Z,35.99
2022-08-28T11:35:41.984Z,36.04
2022-08-28T11:38:10.666Z,36.20
2022-08-28T11:41:10.591Z,36.29
2022-08-28T11:43:43.964Z,36.69
2022-08-28T11:46:27.955Z,37.10
2022-08-28T11:49:26.403Z,37.35
2022-08-28T11:52:51.201Z,37.39
2022-08-28T11:55:54.446Z,37.57
2022-08-28T11:59:08.078Z,37.34
2022-08-28T12:02:40.663Z,36.65
2022-08-28T12:05:57.829Z,36.28
2022-08-28T12:09:32.728Z,36.44
2022-08-28T12:12:45.441Z,37.17
2022-08-28T12:15:47.767Z,37.74
2022-08-28T12:19:20.338Z,38.21
2022-08-28T12:21:55.934Z,37.61
2022-08-28T12:24:48.108Z,37.44
2022-08-28T12:27:58.016Z,37.57
2022-08-28T12:31:09.014Z,38.22
2022-08-28T12:34:09.183Z,38.95
2022-08-28T12:36:52.109Z,39.25
2022-08-28T12:39:31.427Z,38.92
2022-08-28T12:42:44.368Z,38.09
2022-08-28T12:45:34.676Z,36.98
2022-08-28T12:48:18.126Z,36.68
2022-08-28T12:50:46.566Z,35.70
2022-08-28T12:53:18.560Z,35.20
2022-08-28T12:55:47.180Z,35.15
2022-08-28T12:58:30.768Z,35.03
2022-08-28T13:01:06.293Z,34.79
2022-08-28T13:03:41.277Z,34.56
2022-08-28T13:06:09.573Z,34.16
2022-08-28T13:08:38.389Z,33.58
2022-08-28T13:11:07.613Z,33.00
2022-08-28T13:13:40.184Z,32.43
2022-08-28T13:16:11.645Z,31.88
2022-08-28T13:18:55.421Z,31.47
2022-08-28T13:21:33.772Z,31.10
2022-08-28T13:24:36.105Z,30.81
2022-08-28T13:27:15.830Z,30.55
2022-08-28T13:30:08.540Z,30.32
2022-08-28T13:32:39.741Z,30.16
2022-08-28T13:35:32.176Z,30.03
2022-08-28T13:38:05.695Z,29.91
2022-08-28T13:40:57.943Z,29.87
2022-08-28T13:43:30.697Z,29.85
2022-08-28T13:45:58.770Z,29.73
2022-08-28T13:48:28.054Z,29.67
2022-08-28T13:51:03.140Z,29.66
2022-08-28T13:53:33.037Z,29.67
2022-08-28T13:56:01.408Z,29.69
2022-08-28T13:58:29.586Z,29.71
2022-08-28T14:00:58.839Z,29.77
2022-08-28T14:03:42.458Z,29.90
2022-08-28T14:06:14.590Z,30.07
2022-08-28T14:08:45.113Z,30.33
2022-08-28T14:11:15.675Z,30.64
2022-08-28T14:13:55.499Z,31.29
2022-08-28T14:16:26.279Z,32.28
2022-08-28T14:18:54.591Z,33.01
2022-08-28T14:21:26.986Z,33.71
2022-08-28T14:23:58.385Z,34.45
2022-08-28T14:26:27.839Z,35.32
2022-08-28T14:28:59.708Z,36.00
2022-08-28T14:36:01.205Z,37.17
2022-08-28T14:39:30.505Z,37.80
2022-08-28T14:42:40.533Z,38.29
2022-08-28T14:46:11.675Z,37.96
2022-08-28T14:49:22.133Z,37.47
2022-08-28T15:00:06.493Z,38.59
2022-08-28T15:03:20.654Z,38.86
2022-08-28T15:06:29.937Z,39.27
2022-08-28T15:09:38.056Z,39.43
2022-08-28T15:12:41.362Z,39.68
2022-08-28T15:15:50.606Z,39.80
2022-08-28T15:18:40.373Z,39.83
2022-08-28T15:21:25.952Z,39.90
2022-08-28T15:24:35.252Z,40.00
2022-08-28T15:27:43.027Z,39.60
2022-08-28T15:30:33.213Z,39.32
2022-08-28T15:34:01.060Z,39.19
2022-08-28T15:36:54.793Z,39.08
2022-08-28T15:40:01.039Z,39.09
2022-08-28T15:42:49.756Z,39.26
2022-08-28T15:45:43.702Z,39.61
2022-08-28T15:48:33.504Z,39.63
2022-08-28T15:51:37.000Z,39.51
2022-08-28T15:54:51.285Z,39.19
2022-08-28T15:57:59.594Z,37.97
2022-08-28T16:01:32.339Z,37.41
2022-08-28T16:04:38.213Z,37.07
2022-08-28T16:07:20.250Z,36.93
2022-08-28T16:10:10.828Z,36.92
2022-08-28T16:12:59.222Z,36.59
2022-08-28T16:16:15.648Z,36.49
2022-08-28T16:22:47.418Z,36.44
2022-08-28T16:29:31.260Z,36.25
2022-08-28T16:32:59.520Z,36.03
2022-08-28T16:36:33.900Z,35.87
2022-08-28T16:39:18.706Z,35.56
2022-08-28T16:42:51.609Z,35.18
2022-08-28T16:46:20.682Z,34.78
2022-08-28T16:49:05.258Z,34.30
2022-08-28T16:52:07.174Z,33.62
2022-08-28T17:02:58.095Z,31.09
2022-08-28T17:05:58.352Z,30.55
2022-08-28T17:09:08.232Z,30.06
2022-08-28T17:12:56.087Z,29.63
2022-08-28T17:26:26.427Z,27.84
2022-08-28T17:28:54.672Z,27.56
2022-08-28T17:31:22.735Z,27.33
2022-08-28T17:33:50.881Z,27.14
2022-08-28T17:36:32.609Z,26.98
2022-08-28T17:39:03.612Z,26.80
2022-08-28T17:41:32.211Z,26.63
2022-08-28T17:44:01.924Z,26.49
2022-08-28T17:46:32.929Z,26.37
2022-08-28T17:49:07.035Z,26.25
2022-08-28T17:51:42.590Z,26.14
2022-08-28T17:54:14.970Z,26.03
2022-08-28T17:56:42.926Z,25.88
2022-08-28T17:59:12.650Z,25.72
2022-08-28T18:01:41.638Z,25.57
2022-08-28T18:04:10.445Z,25.42
2022-08-28T18:06:39.535Z,25.29
2022-08-28T18:09:08.761Z,25.13
2022-08-28T18:11:37.747Z,24.92
2022-08-28T18:14:06.765Z,24.76
2022-08-28T18:16:37.591Z,24.54
2022-08-28T18:19:42.307Z,24.35
2022-08-28T18:23:19.239Z,24.19
2022-08-28T18:26:47.560Z,24.02
2022-08-28T18:30:15.223Z,23.95
2022-08-28T18:34:02.279Z,23.87
2022-08-28T18:37:17.555Z,23.75
2022-08-28T18:57:07.273Z,22.96
2022-08-28T19:00:19.212Z,22.83
2022-08-28T19:03:27.749Z,22.71
2022-08-28T19:06:40.322Z,22.60
2022-08-28T19:09:55.233Z,22.49
2022-08-28T19:12:53.276Z,22.36
2022-08-28T19:15:51.240Z,22.18
2022-08-28T19:19:18.045Z,22.01
2022-08-28T19:44:32.291Z,21.19
2022-08-28T19:51:05.274Z,20.96
2022-08-28T19:54:35.141Z,20.86
2022-08-28T20:04:47.279Z,20.64
2022-08-28T20:08:04.322Z,20.57
2022-08-28T20:11:30.097Z,20.51
2022-08-28T20:25:14.828Z,20.39
2022-08-28T20:28:03.910Z,20.36
2022-08-28T20:30:39.921Z,20.33
2022-08-28T20:33:11.296Z,20.30
2022-08-28T20:35:43.177Z,20.27
2022-08-28T20:38:12.043Z,20.24
2022-08-28T20:40:42.924Z,20.22
2022-08-28T20:43:15.204Z,20.19
2022-08-28T20:45:52.895Z,20.17
2022-08-28T20:48:41.504Z,20.13
2022-08-28T20:51:10.323Z,20.09
2022-08-28T20:53:39.013Z,20.05
2022-08-28T20:56:10.694Z,20.02
2022-08-28T20:58:40.211Z,20.00
2022-08-28T21:02:44.279Z,19.95
2022-08-28T21:05:12.820Z,19.93
2022-08-28T21:07:55.880Z,19.91
2022-08-28T21:10:28.771Z,19.90
2022-08-28T21:12:56.702Z,19.85
2022-08-28T21:15:25.002Z,19.80
2022-08-28T21:17:54.737Z,19.76
2022-08-28T21:20:23.841Z,19.74
2022-08-28T21:22:53.738Z,19.70
2022-08-28T21:25:24.679Z,19.67
2022-08-28T21:27:53.619Z,19.64
2022-08-28T21:30:22.357Z,19.61
2022-08-28T21:32:51.841Z,19.59
2022-08-28T21:35:21.668Z,19.57
2022-08-28T21:37:49.777Z,19.54
2022-08-28T21:40:19.675Z,19.53
2022-08-28T21:42:48.014Z,19.52
2022-08-28T21:45:37.687Z,19.51
2022-08-28T21:48:06.202Z,19.50
2022-08-28T21:50:34.526Z,19.48
2022-08-28T21:53:02.691Z,19.44
2022-08-28T21:55:48.461Z,19.41
2022-08-28T21:58:17.130Z,19.38
2022-08-28T22:00:51.370Z,19.36
2022-08-28T22:03:21.260Z,19.34
2022-08-28T22:05:51.667Z,19.32
2022-08-28T22:08:23.127Z,19.31
2022-08-28T22:10:52.048Z,19.28
2022-08-28T22:13:20.845Z,19.24
2022-08-28T22:15:49.103Z,19.20
2022-08-28T22:18:46.260Z,19.16
2022-08-28T22:21:55.357Z,19.09
2022-08-28T22:24:25.013Z,19.05
2022-08-28T22:26:57.756Z,19.04
2022-08-28T22:29:26.672Z,19.03
2022-08-28T22:31:54.877Z,19.05
2022-08-28T22:34:23.753Z,19.05
2022-08-28T22:36:53.842Z,19.06
2022-08-28T22:39:43.668Z,19.06
2022-08-28T22:42:11.723Z,19.07
2022-08-28T22:44:54.699Z,19.08
2022-08-28T22:47:23.201Z,19.09
2022-08-28T22:49:55.293Z,19.09
2022-08-28T22:52:23.661Z,19.09
2022-08-28T22:54:54.403Z,19.09
2022-08-28T22:57:24.915Z,19.08
2022-08-28T22:59:53.520Z,19.07
2022-08-28T23:02:27.356Z,19.06
2022-08-28T23:04:55.996Z,19.05
2022-08-28T23:07:24.813Z,19.04
2022-08-28T23:09:53.396Z,19.03
2022-08-28T23:12:24.788Z,19.01
2022-08-28T23:14:56.284Z,19.00
2022-08-28T23:17:24.453Z,18.99
2022-08-28T23:19:53.042Z,18.99
2022-08-28T23:22:21.218Z,18.97
2022-08-28T23:24:49.684Z,18.95
2022-08-28T23:27:36.141Z,18.93
2022-08-28T23:30:07.228Z,18.88
2022-08-28T23:32:35.295Z,18.83
2022-08-28T23:35:07.065Z,18.78
2022-08-28T23:37:37.460Z,18.73
2022-08-28T23:40:09.569Z,18.70
2022-08-28T23:42:38.186Z,18.67
2022-08-28T23:45:07.378Z,18.64
2022-08-28T23:47:40.417Z,18.63
2022-08-28T23:50:13.563Z,18.63
2022-08-28T23:52:43.004Z,18.64
2022-08-28T23:55:13.372Z,18.66
2022-08-28T23:57:41.998Z,18.67
